Time;durP1;ratioP1;P1;durP2;ratioP2;P2;SDS_P1;SDS_P2;PMS_P1;PMS_P2;Temp;Humidity;BMP_temperature;BMP_pressure;BME280_temperature;BME280_humidity;BME280_pressure;Samples;Min_cycle;Max_cycle;Signal;HPM_P1;HPM_P2
2022/11/29 00:01:36;;;;;;;31.53;22.20;;;9.00;99.90;;;;;;5070745;28;20459;-74
2022/11/29 00:04:21;;;;;;;27.42;19.50;;;9.00;99.90;;;;;;5068330;28;20426;-75
2022/11/29 00:07:08;;;;;;;29.70;17.80;;;8.90;99.90;;;;;;5063200;28;20556;-75
2022/11/29 00:09:53;;;;;;;21.57;17.90;;;8.90;99.90;;;;;;5069101;28;20429;-75
2022/11/29 00:12:39;;;;;;;25.37;19.17;;;8.90;99.90;;;;;;5064607;28;20446;-76
2022/11/29 00:15:24;;;;;;;24.27;18.63;;;8.90;99.90;;;;;;5061223;28;20447;-75
2022/11/29 00:18:10;;;;;;;29.17;17.97;;;8.90;99.90;;;;;;5075602;28;20442;-76
2022/11/29 00:20:56;;;;;;;24.70;20.50;;;9.00;99.90;;;;;;5077887;28;20455;-76
2022/11/29 00:23:43;;;;;;;27.10;21.20;;;9.00;99.90;;;;;;5073864;28;20211;-75
2022/11/29 00:26:29;;;;;;;27.97;20.80;;;9.00;99.90;;;;;;5071686;28;20464;-75
2022/11/29 00:29:14;;;;;;;25.80;21.17;;;9.00;99.90;;;;;;5074652;28;20430;-76
2022/11/29 00:32:00;;;;;;;27.58;20.50;;;9.00;99.90;;;;;;5075111;28;20428;-76
2022/11/29 00:34:46;;;;;;;29.83;22.75;;;9.00;99.90;;;;;;5068848;28;20694;-76
2022/11/29 00:37:32;;;;;;;26.27;20.80;;;9.00;99.90;;;;;;5072604;28;20232;-76
2022/11/29 00:40:18;;;;;;;31.20;19.60;;;9.00;99.90;;;;;;5080222;28;20442;-76
2022/11/29 00:43:04;;;;;;;26.73;19.93;;;9.00;99.90;;;;;;5079690;28;20430;-75
2022/11/29 00:45:50;;;;;;;22.50;18.37;;;9.00;99.90;;;;;;5065758;28;20462;-75
2022/11/29 00:48:36;;;;;;;23.40;18.42;;;9.00;99.90;;;;;;5082396;28;20449;-75
2022/11/29 00:51:22;;;;;;;30.57;20.50;;;9.00;99.90;;;;;;5086915;28;20226;-76
2022/11/29 00:54:07;;;;;;;24.23;19.57;;;9.00;99.90;;;;;;5073634;28;20554;-77
2022/11/29 00:56:54;;;;;;;30.23;19.00;;;9.00;99.90;;;;;;5079450;28;20470;-76
2022/11/29 00:59:40;;;;;;;22.40;19.03;;;9.00;99.90;;;;;;5077314;28;20453;-74
2022/11/29 01:02:26;;;;;;;24.20;19.77;;;9.00;99.90;;;;;;5080114;28;20431;-77
2022/11/29 01:05:11;;;;;;;25.40;20.00;;;9.10;99.90;;;;;;5070893;28;20471;-76
2022/11/29 01:07:57;;;;;;;27.43;20.33;;;9.00;99.90;;;;;;5077087;28;20427;-76
2022/11/29 01:10:43;;;;;;;27.60;19.40;;;9.00;99.90;;;;;;5071365;28;20461;-76
2022/11/29 01:13:30;;;;;;;25.30;20.60;;;9.00;99.90;;;;;;5074709;28;20546;-75
2022/11/29 01:16:16;;;;;;;22.97;19.73;;;9.00;99.90;;;;;;5062318;28;20574;-77
2022/11/29 01:19:02;;;;;;;26.60;19.43;;;9.00;99.90;;;;;;5087133;28;20531;-76
2022/11/29 01:21:48;;;;;;;26.90;19.27;;;9.00;99.90;;;;;;5076433;28;20423;-77
2022/11/29 01:24:33;;;;;;;27.43;19.30;;;9.00;99.90;;;;;;5062911;28;20446;-76
2022/11/29 01:27:19;;;;;;;26.10;18.00;;;9.00;99.90;;;;;;5071357;28;20447;-76
2022/11/29 01:30:08;;;;;;;28.07;18.67;;;9.00;99.90;;;;;;5071539;28;20418;-75
2022/11/29 01:32:54;;;;;;;23.47;17.93;;;9.00;99.90;;;;;;5072744;28;20415;-77
2022/11/29 01:35:40;;;;;;;25.00;19.93;;;9.00;99.90;;;;;;5066754;28;20855;-76
2022/11/29 01:38:25;;;;;;;21.00;17.53;;;9.00;99.90;;;;;;5076367;28;20596;-75
2022/11/29 01:41:14;;;;;;;24.30;19.00;;;9.00;99.90;;;;;;5097603;22;20870;-76
2022/11/29 01:44:03;;;;;;;22.60;18.10;;;8.90;99.90;;;;;;5115367;27;20489;-76
2022/11/29 01:46:50;;;;;;;21.02;18.25;;;9.00;99.90;;;;;;5115922;27;20937;-76
2022/11/29 01:49:39;;;;;;;19.15;16.88;;;9.00;99.90;;;;;;5121234;27;20309;-76
2022/11/29 01:52:27;;;;;;;23.80;17.27;;;9.00;99.90;;;;;;5102934;28;20304;-76
2022/11/29 01:55:13;;;;;;;23.97;17.23;;;9.00;99.90;;;;;;5088566;28;20466;-76
2022/11/29 01:58:00;;;;;;;24.40;16.60;;;9.00;99.90;;;;;;5091158;28;20993;-76
2022/11/29 02:00:46;;;;;;;20.03;17.43;;;9.00;99.90;;;;;;5099402;28;20349;-76
2022/11/29 02:03:32;;;;;;;22.37;18.07;;;9.00;99.90;;;;;;5095483;28;20936;-76
2022/11/29 02:06:18;;;;;;;25.50;17.63;;;9.00;99.90;;;;;;5085813;28;20449;-76
2022/11/29 02:09:04;;;;;;;20.30;17.20;;;9.10;99.90;;;;;;5086502;28;20800;-76
2022/11/29 02:12:14;;;;;;;20.50;16.80;;;9.00;99.90;;;;;;5104637;28;20464;-76
2022/11/29 02:15:11;;;;;;;19.97;15.60;;;9.10;99.90;;;;;;5086279;28;20446;-76
2022/11/29 02:18:05;;;;;;;18.98;16.05;;;9.10;99.90;;;;;;5093088;28;20485;-76
2022/11/29 02:21:16;;;;;;;18.30;15.73;;;9.10;99.90;;;;;;5090099;28;20219;-76
2022/11/29 02:24:23;;;;;;;20.17;15.87;;;9.10;99.90;;;;;;5086114;28;20912;-76
2022/11/29 02:27:27;;;;;;;18.00;15.53;;;9.10;99.90;;;;;;5096320;28;20551;-76
2022/11/29 02:30:21;;;;;;;25.20;16.30;;;9.10;99.90;;;;;;5091323;28;20433;-76
2022/11/29 02:33:46;;;;;;;18.57;15.70;;;9.20;99.90;;;;;;5100153;28;20550;-76
2022/11/29 02:36:55;;;;;;;21.77;16.00;;;9.10;99.90;;;;;;5085899;28;20449;-76
2022/11/29 02:40:05;;;;;;;21.17;16.20;;;9.10;99.90;;;;;;5090357;28;21137;-76
2022/11/29 02:43:27;;;;;;;18.97;16.93;;;9.10;99.90;;;;;;5086479;28;20565;-76
2022/11/29 02:46:29;;;;;;;20.70;17.00;;;9.00;99.90;;;;;;5029724;28;20792;-76
2022/11/29 02:49:27;;;;;;;17.33;15.40;;;9.10;99.90;;;;;;5094036;28;20421;-76
2022/11/29 02:52:20;;;;;;;17.70;15.60;;;9.00;99.90;;;;;;5098792;28;20805;-76
2022/11/29 02:55:12;;;;;;;18.53;16.47;;;9.00;99.90;;;;;;5088670;28;20453;-76
2022/11/29 02:58:06;;;;;;;20.67;17.00;;;9.00;99.90;;;;;;5097808;28;20606;-76
2022/11/29 03:00:59;;;;;;;23.47;16.10;;;9.00;99.90;;;;;;5086898;28;20535;-76
2022/11/29 03:03:50;;;;;;;22.20;15.10;;;9.10;99.90;;;;;;5083994;28;20491;-76
2022/11/29 03:06:45;;;;;;;21.63;16.13;;;9.10;99.90;;;;;;5095011;28;20936;-76
2022/11/29 03:09:38;;;;;;;18.07;15.27;;;9.00;99.90;;;;;;5096945;28;20426;-76
2022/11/29 03:12:31;;;;;;;21.03;16.53;;;9.00;99.90;;;;;;5096822;28;20449;-76
2022/11/29 03:15:27;;;;;;;19.80;15.80;;;9.00;99.90;;;;;;5096232;28;20857;-76
2022/11/29 03:18:28;;;;;;;22.67;16.47;;;9.00;99.90;;;;;;5092265;28;20555;-76
2022/11/29 03:21:24;;;;;;;18.33;14.73;;;9.00;99.90;;;;;;5105271;28;20456;-76
2022/11/29 03:24:15;;;;;;;18.90;15.50;;;9.10;99.90;;;;;;5088093;28;20475;-76
2022/11/29 03:27:06;;;;;;;24.47;16.87;;;9.00;99.90;;;;;;5091296;28;20418;-76
2022/11/29 03:29:59;;;;;;;19.33;16.17;;;9.10;99.90;;;;;;5098059;28;20445;-76
2022/11/29 03:32:52;;;;;;;17.77;15.87;;;9.10;99.90;;;;;;5084238;28;20523;-76
2022/11/29 03:35:43;;;;;;;21.37;16.20;;;9.10;99.90;;;;;;5097899;28;20425;-76
2022/11/29 03:38:38;;;;;;;21.63;16.80;;;9.10;99.90;;;;;;5092892;28;20462;-76
2022/11/29 03:41:30;;;;;;;20.73;16.10;;;9.00;99.90;;;;;;5098344;28;20719;-76
2022/11/29 03:44:19;;;;;;;19.10;16.00;;;9.00;99.90;;;;;;5091096;28;20464;-76
2022/11/29 03:47:11;;;;;;;18.90;14.97;;;9.00;99.90;;;;;;5094480;28;20426;-76
2022/11/29 03:50:01;;;;;;;25.60;14.03;;;9.00;99.90;;;;;;5086488;28;20942;-76
2022/11/29 03:52:52;;;;;;;19.90;16.77;;;9.00;99.90;;;;;;5095948;28;20446;-76
2022/11/29 03:55:51;;;;;;;19.03;14.90;;;9.00;99.90;;;;;;5090125;28;20433;-76
2022/11/29 03:58:50;;;;;;;22.60;16.90;;;9.10;99.90;;;;;;5090834;28;20464;-76
2022/11/29 04:01:55;;;;;;;21.70;16.30;;;9.00;99.90;;;;;;5088579;28;20801;-76
2022/11/29 04:05:20;;;;;;;17.70;15.80;;;9.00;99.90;;;;;;5098221;28;21038;-76
2022/11/29 04:08:37;;;;;;;18.00;16.10;;;9.00;99.90;;;;;;5093204;28;20437;-76
2022/11/29 04:12:14;;;;;;;20.30;16.53;;;9.00;99.90;;;;;;5089924;28;20804;-76
2022/11/29 04:15:33;;;;;;;21.30;16.40;;;8.90;99.90;;;;;;5031395;28;20432;-76
2022/11/29 04:18:58;;;;;;;19.93;16.40;;;9.00;99.90;;;;;;5090057;28;20473;-76
2022/11/29 04:22:18;;;;;;;23.90;16.27;;;9.10;99.90;;;;;;5092527;28;20441;-76
2022/11/29 04:25:37;;;;;;;20.23;15.53;;;9.10;99.90;;;;;;5069440;28;20457;-76
2022/11/29 04:28:50;;;;;;;19.30;16.20;;;9.10;99.90;;;;;;5102293;28;20531;-76
2022/11/29 04:31:52;;;;;;;23.73;15.87;;;9.10;99.90;;;;;;5084177;28;20819;-76
2022/11/29 04:35:07;;;;;;;24.80;16.00;;;9.20;99.90;;;;;;5087729;28;20417;-76
2022/11/29 04:38:21;;;;;;;20.90;15.00;;;9.10;99.90;;;;;;5096098;28;20466;-76
2022/11/29 04:41:19;;;;;;;17.70;14.90;;;9.10;99.90;;;;;;5077273;28;20479;-76
2022/11/29 04:44:35;;;;;;;23.33;17.20;;;9.10;99.90;;;;;;5090841;28;20826;-76
2022/11/29 04:47:43;;;;;;;21.20;16.77;;;9.10;99.90;;;;;;5091192;28;20501;-76
2022/11/29 04:50:48;;;;;;;31.80;17.57;;;9.10;99.90;;;;;;5093742;28;21092;-76
2022/11/29 04:53:47;;;;;;;25.33;17.67;;;9.10;99.90;;;;;;5087874;28;21137;-76
2022/11/29 04:56:40;;;;;;;23.77;17.20;;;9.10;99.90;;;;;;5095699;28;20429;-76
2022/11/29 04:59:35;;;;;;;18.60;15.10;;;9.00;99.90;;;;;;5098168;28;20438;-76
2022/11/29 05:02:32;;;;;;;19.57;15.00;;;9.00;99.90;;;;;;5094206;28;20469;-76
2022/11/29 05:05:28;;;;;;;21.77;16.77;;;9.00;99.90;;;;;;5090567;28;20438;-76
2022/11/29 05:08:27;;;;;;;23.77;15.23;;;8.90;99.90;;;;;;5091323;28;20426;-76
2022/11/29 05:11:26;;;;;;;20.40;16.37;;;9.00;99.90;;;;;;5091580;28;20878;-76
2022/11/29 05:14:25;;;;;;;26.80;16.97;;;9.00;99.90;;;;;;5101532;28;20425;-76
2022/11/29 05:17:31;;;;;;;21.67;16.50;;;9.10;99.90;;;;;;5092018;28;20429;-76
2022/11/29 05:20:34;;;;;;;24.33;17.10;;;9.10;99.90;;;;;;5104864;28;20432;-76
2022/11/29 05:23:32;;;;;;;23.77;17.10;;;9.20;99.90;;;;;;5093799;28;20796;-76
2022/11/29 05:26:25;;;;;;;19.75;16.15;;;9.20;99.90;;;;;;5103181;28;20432;-76
2022/11/29 05:29:17;;;;;;;21.53;16.63;;;9.10;99.90;;;;;;5092828;28;20734;-76
2022/11/29 05:32:22;;;;;;;23.05;15.52;;;9.10;99.90;;;;;;5085027;28;20963;-76
2022/11/29 05:35:49;;;;;;;25.23;15.07;;;9.10;99.90;;;;;;5097600;28;20626;-76
2022/11/29 05:38:55;;;;;;;26.20;17.70;;;9.10;99.90;;;;;;5090882;28;20520;-76
2022/11/29 05:41:55;;;;;;;25.67;16.50;;;9.10;99.90;;;;;;5093492;28;20473;-76
2022/11/29 05:44:45;;;;;;;24.03;16.30;;;9.10;99.90;;;;;;5091563;28;20620;-76
2022/11/29 05:47:39;;;;;;;23.93;15.17;;;9.10;99.90;;;;;;5102430;28;20846;-76
2022/11/29 05:50:30;;;;;;;25.30;15.17;;;9.10;99.90;;;;;;5094566;28;21080;-76
2022/11/29 05:53:21;;;;;;;21.97;15.30;;;9.10;99.90;;;;;;5091865;28;20536;-76
2022/11/29 05:56:15;;;;;;;24.23;14.40;;;9.10;99.90;;;;;;5098158;28;20448;-76
2022/11/29 05:59:05;;;;;;;30.50;17.00;;;9.00;99.90;;;;;;5100636;28;20587;-76
2022/11/29 06:02:00;;;;;;;26.73;14.77;;;9.00;99.90;;;;;;5085420;28;20464;-76
2022/11/29 06:04:58;;;;;;;26.13;14.23;;;9.00;99.90;;;;;;5100744;28;20413;-76
2022/11/29 06:07:51;;;;;;;24.93;15.70;;;8.90;99.90;;;;;;5097589;28;20426;-76
2022/11/29 06:10:39;;;;;;;24.47;14.23;;;8.80;99.90;;;;;;5093339;28;20445;-76
2022/11/29 06:13:38;;;;;;;21.83;14.73;;;8.90;99.90;;;;;;5095822;28;20593;-76
2022/11/29 06:16:46;;;;;;;22.73;12.83;;;8.90;99.90;;;;;;5086551;28;20450;-76
2022/11/29 06:19:52;;;;;;;23.17;14.13;;;8.90;99.90;;;;;;5096010;28;20470;-76
2022/11/29 06:23:11;;;;;;;21.30;12.80;;;9.00;99.90;;;;;;5091654;28;20466;-76
2022/11/29 06:26:17;;;;;;;21.20;11.67;;;9.00;99.90;;;;;;5086493;28;20429;-76
2022/11/29 06:29:24;;;;;;;22.90;12.97;;;9.00;99.90;;;;;;5095205;28;20425;-76
2022/11/29 06:32:20;;;;;;;22.97;12.43;;;9.10;99.90;;;;;;5084513;28;20504;-76
2022/11/29 06:35:15;;;;;;;18.17;11.80;;;9.10;99.90;;;;;;5102586;28;20792;-76
2022/11/29 06:38:06;;;;;;;20.70;12.43;;;9.10;99.90;;;;;;5094055;28;20461;-76
2022/11/29 06:40:54;;;;;;;18.03;11.90;;;9.10;99.90;;;;;;5084159;28;21002;-76
2022/11/29 06:43:40;;;;;;;15.80;10.57;;;9.10;99.90;;;;;;5095521;28;20422;-76
2022/11/29 06:46:40;;;;;;;16.80;11.07;;;9.10;99.90;;;;;;5102807;28;20209;-76
2022/11/29 06:49:28;;;;;;;24.33;12.63;;;9.00;99.90;;;;;;5097439;28;20791;-76
2022/11/29 06:52:26;;;;;;;16.90;11.10;;;9.00;99.90;;;;;;5087926;28;20222;-76
2022/11/29 06:55:18;;;;;;;19.93;11.47;;;8.90;99.90;;;;;;5101787;28;20207;-76
2022/11/29 06:58:13;;;;;;;17.37;11.30;;;8.90;99.90;;;;;;5088968;28;20575;-76
2022/11/29 07:01:05;;;;;;;19.00;11.47;;;8.90;99.90;;;;;;5091170;28;20611;-76
2022/11/29 07:04:04;;;;;;;18.30;11.17;;;9.00;99.90;;;;;;5087073;28;20433;-76
2022/11/29 07:06:51;;;;;;;18.63;11.00;;;9.00;99.90;;;;;;5096200;28;20996;-76
2022/11/29 07:09:37;;;;;;;16.70;10.83;;;9.10;99.90;;;;;;5086156;28;20783;-76
2022/11/29 07:12:23;;;;;;;20.83;11.93;;;9.10;99.90;;;;;;5099593;28;20502;-76
2022/11/29 07:15:14;;;;;;;24.63;12.10;;;9.10;99.90;;;;;;5102607;28;20476;-76
2022/11/29 07:18:12;;;;;;;22.30;11.60;;;9.10;99.90;;;;;;5093194;28;20489;-76
2022/11/29 07:21:10;;;;;;;21.77;13.20;;;9.10;99.90;;;;;;5079876;28;20461;-76
2022/11/29 07:24:06;;;;;;;17.90;12.17;;;9.10;99.90;;;;;;5088254;28;20468;-76
2022/11/29 07:27:00;;;;;;;26.73;10.50;;;9.10;99.90;;;;;;5099061;28;20946;-76
2022/11/29 07:30:00;;;;;;;17.90;11.60;;;9.20;99.90;;;;;;5085746;28;20445;-76
2022/11/29 07:32:58;;;;;;;20.27;11.70;;;9.20;99.90;;;;;;5092741;28;20921;-76
2022/11/29 07:35:50;;;;;;;19.45;12.60;;;9.20;99.90;;;;;;5085712;28;20471;-76
2022/11/29 07:38:50;;;;;;;26.70;16.17;;;9.10;99.90;;;;;;5089035;28;20211;-76
2022/11/29 07:41:43;;;;;;;27.10;18.40;;;9.10;99.90;;;;;;5085821;28;20461;-76
2022/11/29 07:44:35;;;;;;;31.13;20.10;;;9.20;99.90;;;;;;5097898;28;20437;-76
2022/11/29 07:47:21;;;;;;;24.60;15.57;;;9.20;99.90;;;;;;5097135;28;20230;-76
2022/11/29 07:50:08;;;;;;;17.70;11.30;;;9.20;99.90;;;;;;5086456;28;20940;-76
2022/11/29 07:52:55;;;;;;;19.67;12.00;;;9.30;99.90;;;;;;5095727;28;20292;-76
2022/11/29 07:55:42;;;;;;;24.10;13.60;;;9.30;99.90;;;;;;5090495;28;20571;-76
2022/11/29 07:58:28;;;;;;;18.60;13.73;;;9.30;99.90;;;;;;5094187;28;20477;-76
2022/11/29 08:01:13;;;;;;;31.63;16.10;;;9.30;99.90;;;;;;5089014;28;20828;-75
2022/11/29 08:03:59;;;;;;;23.53;14.70;;;9.30;99.90;;;;;;5092773;28;20930;-76
2022/11/29 08:06:45;;;;;;;24.40;15.50;;;9.20;99.90;;;;;;5098537;28;21037;-76
2022/11/29 08:09:30;;;;;;;30.50;15.37;;;9.30;99.90;;;;;;5093504;28;20800;-76
2022/11/29 08:12:17;;;;;;;29.23;16.47;;;9.30;99.90;;;;;;5102128;28;20445;-76
2022/11/29 08:15:03;;;;;;;34.07;17.53;;;9.30;99.90;;;;;;5095262;28;20475;-75
2022/11/29 08:17:49;;;;;;;31.33;16.77;;;9.20;99.90;;;;;;5092650;28;20402;-75
2022/11/29 08:20:35;;;;;;;32.90;16.00;;;9.20;99.90;;;;;;5090761;28;20465;-75
2022/11/29 08:23:21;;;;;;;30.20;16.53;;;9.10;99.90;;;;;;5095284;28;20438;-76
2022/11/29 08:26:07;;;;;;;30.73;17.80;;;9.20;99.90;;;;;;5106981;28;20896;-76
2022/11/29 08:28:53;;;;;;;30.63;16.97;;;9.20;99.90;;;;;;5087353;28;20546;-76
2022/11/29 08:31:39;;;;;;;31.83;17.40;;;9.20;99.90;;;;;;5102016;28;20444;-76
2022/11/29 08:34:25;;;;;;;26.90;16.00;;;9.30;99.90;;;;;;5077844;28;20438;-76
2022/11/29 08:37:10;;;;;;;34.37;18.50;;;9.40;99.90;;;;;;5081566;28;20482;-76
2022/11/29 08:39:57;;;;;;;29.57;16.67;;;9.20;99.90;;;;;;5085305;28;20465;-76
2022/11/29 08:42:43;;;;;;;27.73;17.03;;;9.20;99.90;;;;;;5079801;28;20830;-76
2022/11/29 08:45:30;;;;;;;34.27;18.63;;;9.20;99.90;;;;;;5083542;28;20441;-76
2022/11/29 08:48:16;;;;;;;31.40;18.83;;;9.20;99.90;;;;;;5076898;28;20931;-76
2022/11/29 08:51:02;;;;;;;27.37;17.40;;;9.20;99.90;;;;;;5088667;28;20465;-76
2022/11/29 08:53:50;;;;;;;27.10;14.60;;;9.30;99.90;;;;;;5082544;28;20441;-76
2022/11/29 08:56:37;;;;;;;32.20;16.23;;;9.30;99.90;;;;;;5093526;28;21038;-76
2022/11/29 08:59:22;;;;;;;26.03;14.20;;;9.40;99.90;;;;;;5091253;28;20514;-76
2022/11/29 09:02:10;;;;;;;26.80;14.43;;;9.50;99.90;;;;;;5089401;28;20454;-76
2022/11/29 09:04:55;;;;;;;23.20;15.43;;;9.50;99.90;;;;;;5078388;28;20576;-76
2022/11/29 09:07:41;;;;;;;24.37;15.70;;;9.50;99.90;;;;;;5084584;28;20546;-75
2022/11/29 09:10:27;;;;;;;23.77;14.10;;;9.60;99.90;;;;;;5084156;28;20815;-76
2022/11/29 09:13:12;;;;;;;21.70;14.23;;;9.60;99.90;;;;;;5089090;28;20806;-76
2022/11/29 09:15:58;;;;;;;26.77;17.40;;;9.60;99.90;;;;;;5089410;28;20449;-76
2022/11/29 09:18:47;;;;;;;31.77;18.80;;;9.60;99.90;;;;;;5082919;28;20578;-76
2022/11/29 09:21:35;;;;;;;30.97;18.40;;;9.60;99.90;;;;;;5085692;28;21051;-75
2022/11/29 09:24:21;;;;;;;31.23;18.87;;;9.60;99.90;;;;;;5078842;28;20446;-75
2022/11/29 09:27:06;;;;;;;28.63;19.00;;;9.60;99.90;;;;;;5089141;28;20424;-75
2022/11/29 09:29:52;;;;;;;27.60;18.07;;;9.60;99.90;;;;;;5093084;28;20472;-76
2022/11/29 09:32:37;;;;;;;27.83;16.30;;;9.60;99.90;;;;;;5100034;28;20446;-76
2022/11/29 09:35:25;;;;;;;25.13;16.30;;;9.60;99.90;;;;;;5098130;28;20425;-76
2022/11/29 09:38:11;;;;;;;21.45;15.70;;;9.60;99.90;;;;;;5085209;28;20466;-76
2022/11/29 09:40:58;;;;;;;26.80;16.17;;;9.60;99.90;;;;;;5101591;28;20495;-76
2022/11/29 09:43:51;;;;;;;21.67;13.63;;;9.60;99.90;;;;;;5090733;28;20491;-76
2022/11/29 09:46:46;;;;;;;23.20;14.83;;;9.70;99.90;;;;;;5091287;28;20614;-76
2022/11/29 09:49:55;;;;;;;20.43;13.43;;;9.70;99.90;;;;;;5089334;28;20511;-76
2022/11/29 09:52:51;;;;;;;22.40;13.00;;;9.70;99.90;;;;;;5095733;28;20836;-76
2022/11/29 09:55:56;;;;;;;24.50;14.50;;;9.70;99.90;;;;;;5082049;28;20449;-76
2022/11/29 09:58:47;;;;;;;34.47;20.97;;;9.80;99.90;;;;;;5090246;28;20558;-76
2022/11/29 10:01:37;;;;;;;40.30;26.17;;;9.90;99.90;;;;;;5090772;28;20925;-76
2022/11/29 10:04:27;;;;;;;32.13;23.90;;;9.90;99.90;;;;;;5083375;28;20521;-76
2022/11/29 10:07:20;;;;;;;35.33;23.80;;;9.90;99.90;;;;;;5087132;28;20434;-76
2022/11/29 10:10:17;;;;;;;25.80;18.00;;;9.90;99.90;;;;;;5090510;28;20453;-76
2022/11/29 10:13:07;;;;;;;20.80;15.80;;;9.90;99.90;;;;;;5092122;28;20811;-76
2022/11/29 10:15:56;;;;;;;21.33;15.20;;;9.90;99.90;;;;;;5097528;28;20547;-76
2022/11/29 10:18:48;;;;;;;19.03;13.63;;;9.90;99.90;;;;;;5093204;28;20466;-76
2022/11/29 10:21:36;;;;;;;18.07;13.20;;;9.80;99.90;;;;;;5100301;28;20437;-76
2022/11/29 10:24:25;;;;;;;16.50;12.53;;;9.70;99.90;;;;;;5095247;28;20429;-76
2022/11/29 10:27:18;;;;;;;17.37;12.30;;;9.70;99.90;;;;;;5086952;28;21005;-76
2022/11/29 10:30:05;;;;;;;15.90;11.37;;;9.70;99.90;;;;;;5090600;28;20946;-76
2022/11/29 10:32:57;;;;;;;17.03;11.10;;;9.70;99.90;;;;;;5082761;28;20446;-75
2022/11/29 10:35:42;;;;;;;17.50;12.83;;;9.80;99.90;;;;;;5087312;28;20593;-75
2022/11/29 10:38:28;;;;;;;16.23;11.83;;;9.80;99.90;;;;;;5085166;28;20449;-75
2022/11/29 10:41:20;;;;;;;16.43;12.43;;;9.80;99.90;;;;;;5093455;28;20458;-74
2022/11/29 10:44:07;;;;;;;14.43;11.57;;;9.90;99.90;;;;;;5083133;28;21178;-74
2022/11/29 10:46:53;;;;;;;15.00;11.40;;;10.00;99.90;;;;;;5084565;28;20876;-75
2022/11/29 10:49:39;;;;;;;16.10;10.60;;;10.00;99.90;;;;;;5084545;28;20800;-75
2022/11/29 10:52:25;;;;;;;13.80;10.63;;;10.00;99.90;;;;;;5087831;28;20527;-74
2022/11/29 10:55:15;;;;;;;15.50;12.00;;;10.00;99.90;;;;;;5075808;22;20660;-74
2022/11/29 10:58:10;;;;;;;14.20;10.90;;;10.10;99.90;;;;;;5036062;28;20834;-74
2022/11/29 11:00:59;;;;;;;14.00;11.50;;;10.10;99.90;;;;;;5046947;28;20533;-74
2022/11/29 11:03:52;;;;;;;17.23;13.03;;;10.10;99.90;;;;;;5053478;22;20493;-74
2022/11/29 11:06:46;;;;;;;22.83;12.97;;;10.20;99.90;;;;;;5046996;28;20543;-74
2022/11/29 11:09:35;;;;;;;16.17;11.50;;;10.20;99.90;;;;;;5054370;28;20781;-74
2022/11/29 11:12:24;;;;;;;18.27;13.37;;;10.20;99.90;;;;;;5042853;28;20577;-75
2022/11/29 11:15:26;;;;;;;17.50;13.40;;;10.20;99.90;;;;;;5047351;28;20459;-75
2022/11/29 11:18:21;;;;;;;20.10;14.10;;;10.20;99.90;;;;;;5062011;22;20460;-74
2022/11/29 11:21:10;;;;;;;14.20;11.80;;;10.20;99.90;;;;;;5065729;28;20446;-74
2022/11/29 11:23:58;;;;;;;16.63;11.73;;;10.30;99.90;;;;;;5066560;28;20421;-75
2022/11/29 11:26:45;;;;;;;15.90;11.77;;;10.20;99.90;;;;;;5067081;28;20557;-74
2022/11/29 11:29:35;;;;;;;14.80;11.03;;;10.20;99.90;;;;;;5079309;28;20441;-74
2022/11/29 11:32:21;;;;;;;18.00;12.17;;;10.20;99.90;;;;;;5073552;28;20430;-74
2022/11/29 11:35:23;;;;;;;16.80;14.07;;;10.20;99.90;;;;;;5069735;28;20533;-73
2022/11/29 11:38:16;;;;;;;19.47;14.87;;;10.30;99.90;;;;;;5070763;28;20473;-74
2022/11/29 11:41:20;;;;;;;21.40;16.20;;;10.40;99.90;;;;;;5076468;28;20845;-74
2022/11/29 11:44:29;;;;;;;18.97;14.17;;;10.30;99.90;;;;;;5067780;28;20470;-75
2022/11/29 11:47:18;;;;;;;13.83;11.40;;;10.30;99.90;;;;;;5067110;28;20604;-75
2022/11/29 11:50:12;;;;;;;17.90;11.87;;;10.20;99.90;;;;;;5070062;28;20418;-73
2022/11/29 11:52:59;;;;;;;17.27;11.70;;;10.20;99.90;;;;;;5072618;28;20561;-74
2022/11/29 11:55:57;;;;;;;19.20;14.70;;;10.30;99.90;;;;;;5070359;28;20493;-75
2022/11/29 11:58:49;;;;;;;19.43;13.20;;;10.30;99.90;;;;;;5072762;28;21049;-75
2022/11/29 12:01:37;;;;;;;21.90;14.23;;;10.30;99.90;;;;;;5070588;28;20419;-74
2022/11/29 12:04:30;;;;;;;15.83;13.10;;;10.30;99.90;;;;;;5077338;28;20503;-74
2022/11/29 12:07:24;;;;;;;17.53;13.07;;;10.20;99.90;;;;;;5065829;28;20442;-74
2022/11/29 12:10:19;;;;;;;21.73;13.07;;;10.30;99.90;;;;;;5067885;28;20427;-74
2022/11/29 12:13:05;;;;;;;22.87;14.13;;;10.30;99.90;;;;;;5074409;28;20499;-74
2022/11/29 12:15:52;;;;;;;23.50;14.30;;;10.30;99.90;;;;;;5068737;28;20422;-74
2022/11/29 12:18:44;;;;;;;22.90;17.67;;;10.30;99.90;;;;;;5073551;28;20437;-74
2022/11/29 12:21:37;;;;;;;39.30;17.07;;;10.30;99.90;;;;;;5076231;28;20421;-75
2022/11/29 12:24:28;;;;;;;23.33;16.03;;;10.30;99.90;;;;;;5067039;28;21018;-74
2022/11/29 12:27:14;;;;;;;22.43;16.20;;;10.20;99.90;;;;;;5059321;28;20493;-74
2022/11/29 12:30:00;;;;;;;21.23;17.33;;;10.20;99.90;;;;;;5078562;28;20427;-75
2022/11/29 12:33:18;;;;;;;23.03;17.20;;;10.20;99.90;;;;;;5075046;28;20479;-74
2022/11/29 12:36:25;;;;;;;22.80;15.77;;;10.20;99.90;;;;;;5071335;28;20456;-74
2022/11/29 12:39:24;;;;;;;20.50;14.13;;;10.20;99.90;;;;;;5068482;28;20446;-74
2022/11/29 12:42:21;;;;;;;16.77;13.37;;;10.10;99.90;;;;;;5067163;28;20405;-74
2022/11/29 12:45:34;;;;;;;23.87;13.73;;;10.10;99.90;;;;;;5062230;28;20446;-73
2022/11/29 12:48:31;;;;;;;14.53;11.87;;;10.10;99.90;;;;;;5072609;28;20447;-74
2022/11/29 12:51:26;;;;;;;20.43;14.17;;;10.10;99.90;;;;;;5075810;28;20485;-74
2022/11/29 12:54:28;;;;;;;21.70;14.20;;;10.10;99.90;;;;;;5067610;28;20454;-74
2022/11/29 12:57:23;;;;;;;21.00;15.60;;;10.00;99.90;;;;;;5065492;28;20453;-72
2022/11/29 13:00:16;;;;;;;28.23;17.43;;;10.00;99.90;;;;;;5063656;28;20471;-74
2022/11/29 13:03:11;;;;;;;25.70;17.80;;;9.90;99.90;;;;;;5065938;28;20450;-74
2022/11/29 13:06:11;;;;;;;24.10;17.20;;;9.90;99.90;;;;;;5063599;28;20516;-73
2022/11/29 13:09:12;;;;;;;20.77;13.60;;;10.00;99.90;;;;;;5078258;28;20460;-74
2022/11/29 13:12:04;;;;;;;21.03;14.27;;;9.90;99.90;;;;;;5072818;28;20437;-74
2022/11/29 13:15:00;;;;;;;18.67;13.70;;;9.90;99.90;;;;;;5068060;28;20898;-74
2022/11/29 13:17:55;;;;;;;21.83;15.77;;;9.90;99.90;;;;;;5074382;28;21005;-75
2022/11/29 13:20:47;;;;;;;21.10;15.93;;;9.90;99.90;;;;;;5069032;28;20512;-76
2022/11/29 13:23:39;;;;;;;20.17;14.20;;;9.90;99.90;;;;;;5066868;28;20458;-74
2022/11/29 13:26:27;;;;;;;23.90;15.13;;;9.90;99.90;;;;;;5066147;28;20442;-75
2022/11/29 13:29:15;;;;;;;25.20;15.83;;;10.00;99.90;;;;;;5063879;28;20443;-74
2022/11/29 13:32:23;;;;;;;20.50;16.33;;;10.00;99.90;;;;;;5074963;28;20425;-75
2022/11/29 13:35:19;;;;;;;25.23;15.10;;;10.00;99.90;;;;;;5063225;28;20450;-75
2022/11/29 13:38:13;;;;;;;21.87;16.13;;;9.90;99.90;;;;;;5068239;28;20470;-74
2022/11/29 13:41:10;;;;;;;26.00;16.47;;;9.90;99.90;;;;;;5067471;28;20833;-74
2022/11/29 13:44:03;;;;;;;26.93;16.77;;;9.90;99.90;;;;;;5056639;28;20990;-74
2022/11/29 13:46:58;;;;;;;22.60;15.83;;;9.80;99.90;;;;;;5066426;28;20454;-75
2022/11/29 13:49:53;;;;;;;26.37;17.17;;;9.90;99.90;;;;;;5065179;28;20750;-74
2022/11/29 13:52:41;;;;;;;24.80;17.30;;;9.90;99.90;;;;;;5063725;28;20817;-75
2022/11/29 13:55:30;;;;;;;24.80;15.40;;;9.90;99.90;;;;;;5063509;28;20455;-74
2022/11/29 13:58:35;;;;;;;20.87;14.57;;;9.90;99.90;;;;;;5077978;28;20449;-74
2022/11/29 14:01:22;;;;;;;21.40;15.70;;;9.80;99.90;;;;;;5066519;28;20469;-74
2022/11/29 14:04:22;;;;;;;23.20;14.20;;;9.90;99.90;;;;;;5070838;28;20779;-74
2022/11/29 14:07:12;;;;;;;23.37;15.87;;;9.90;99.90;;;;;;5075436;28;20422;-75
2022/11/29 14:10:02;;;;;;;27.87;14.53;;;10.00;99.90;;;;;;5075345;28;20433;-74
2022/11/29 14:12:50;;;;;;;22.60;13.93;;;10.10;99.90;;;;;;5064652;28;20577;-74
2022/11/29 14:15:37;;;;;;;24.80;15.03;;;10.10;99.90;;;;;;5062758;28;20517;-75
2022/11/29 14:19:03;;;;;;;24.37;16.67;;;10.10;99.90;;;;;;5070376;28;20595;-73
2022/11/29 14:22:29;;;;;;;25.57;16.53;;;10.10;99.90;;;;;;5070413;28;20843;-75
2022/11/29 14:25:26;;;;;;;27.93;17.40;;;10.10;99.90;;;;;;5058162;28;20497;-74
2022/11/29 14:28:33;;;;;;;32.23;19.67;;;10.10;99.90;;;;;;5073946;28;20665;-74
2022/11/29 14:31:51;;;;;;;25.40;17.60;;;10.00;99.90;;;;;;5072318;28;20899;-74
2022/11/29 14:34:45;;;;;;;30.83;18.70;;;10.10;99.90;;;;;;5055332;28;21022;-74
2022/11/29 14:37:50;;;;;;;26.97;17.57;;;10.10;99.90;;;;;;5066367;28;20451;-74
2022/11/29 14:40:46;;;;;;;24.80;17.53;;;10.10;99.90;;;;;;5067053;28;20605;-75
2022/11/29 14:43:34;;;;;;;30.80;19.67;;;10.00;99.90;;;;;;5066210;28;20523;-74
2022/11/29 14:46:30;;;;;;;27.63;17.80;;;10.00;99.90;;;;;;5065265;28;20445;-75
2022/11/29 14:49:23;;;;;;;29.53;18.97;;;10.00;99.90;;;;;;5066429;28;20508;-74
2022/11/29 14:52:18;;;;;;;36.80;19.00;;;10.10;99.90;;;;;;5066484;28;20959;-75